createdAt,value
2022-10-27T04:00:32.811Z,1003.65
2022-10-27T04:05:32.784Z,1003.60
2022-10-27T04:10:32.696Z,1003.53
2022-10-27T04:15:39.726Z,1003.53
2022-10-27T04:20:32.561Z,1003.53
2022-10-27T04:25:32.515Z,1003.56
2022-10-27T04:30:32.456Z,1003.60
2022-10-27T04:40:32.334Z,1003.52
2022-10-27T04:45:32.296Z,1003.40
2022-10-27T04:50:32.240Z,1003.37
2022-10-27T04:55:32.205Z,1003.35
2022-10-27T05:05:32.080Z,1003.44
2022-10-27T05:10:32.025Z,1003.43
2022-10-27T05:15:31.991Z,1003.43
2022-10-27T05:20:31.901Z,1003.42
2022-10-27T05:25:31.902Z,1003.44
2022-10-27T05:30:31.799Z,1003.44
2022-10-27T05:35:31.769Z,1003.50
2022-10-27T05:40:31.691Z,1003.51
2022-10-27T05:45:31.636Z,1003.47
2022-10-27T05:50:31.771Z,1003.61
2022-10-27T05:55:31.584Z,1003.58
2022-10-27T06:00:31.476Z,1003.54
2022-10-27T06:05:31.418Z,1003.63
2022-10-27T06:10:31.349Z,1003.57
2022-10-27T06:15:31.379Z,1003.69
2022-10-27T06:20:31.265Z,1003.68
2022-10-27T06:25:31.182Z,1003.80
2022-10-27T06:30:31.142Z,1003.75
2022-10-27T06:35:31.104Z,1003.87
2022-10-27T06:40:31.099Z,1003.82
2022-10-27T06:45:30.984Z,1003.96
2022-10-27T06:50:30.951Z,1004.10
2022-10-27T06:55:30.875Z,1004.05
2022-10-27T07:00:30.820Z,1004.07
2022-10-27T07:05:30.769Z,1004.01
2022-10-27T07:10:30.695Z,1003.96
2022-10-27T07:15:30.673Z,1003.94
2022-10-27T07:20:30.603Z,1003.86
2022-10-27T07:25:30.607Z,1003.82
2022-10-27T07:30:30.490Z,1003.73
2022-10-27T07:35:30.459Z,1003.63
2022-10-27T07:40:33.023Z,1003.68
2022-10-27T07:45:30.328Z,1003.56
2022-10-27T07:50:30.386Z,1003.57
2022-10-27T07:55:30.227Z,1003.55
2022-10-27T08:00:30.165Z,1003.47
2022-10-27T08:05:30.120Z,1003.51
2022-10-27T08:10:30.045Z,1003.56
2022-10-27T08:15:30.115Z,1003.57
2022-10-27T08:20:29.963Z,1003.54
2022-10-27T08:25:29.883Z,1003.52
2022-10-27T08:30:33.019Z,1003.57
2022-10-27T08:35:29.811Z,1003.60
2022-10-27T08:40:29.754Z,1003.67
2022-10-27T08:45:29.791Z,1003.68
2022-10-27T08:50:29.650Z,1003.62
2022-10-27T08:55:29.589Z,1003.68
2022-10-27T09:00:29.524Z,1003.58
2022-10-27T09:05:29.473Z,1003.53
2022-10-27T09:10:29.398Z,1003.50
2022-10-27T09:15:29.377Z,1003.59
2022-10-27T09:20:29.302Z,1003.48
2022-10-27T09:25:29.238Z,1003.47
2022-10-27T09:30:29.200Z,1003.37
2022-10-27T09:35:29.164Z,1003.26
2022-10-27T09:40:29.071Z,1003.25
2022-10-27T09:45:29.032Z,1003.21
2022-10-27T09:50:28.979Z,1003.16
2022-10-27T09:55:28.976Z,1003.19
2022-10-27T10:00:28.926Z,1003.16
2022-10-27T10:05:28.824Z,1002.98
2022-10-27T10:10:29.993Z,1003.00
2022-10-27T10:15:35.822Z,1003.11
2022-10-27T10:20:28.693Z,1002.92
2022-10-27T10:25:28.611Z,1002.80
2022-10-27T10:30:28.528Z,1002.70
2022-10-27T10:35:28.508Z,1002.64
2022-10-27T10:40:28.440Z,1002.76
2022-10-27T10:45:28.372Z,1002.74
2022-10-27T10:50:28.329Z,1002.68
2022-10-27T10:55:28.301Z,1002.65
2022-10-27T11:00:28.249Z,1002.58
2022-10-27T11:05:28.171Z,1002.47
2022-10-27T11:10:28.117Z,1002.41
2022-10-27T11:15:28.101Z,1002.42
2022-10-27T11:20:28.014Z,1002.49
2022-10-27T11:25:27.954Z,1002.31
2022-10-27T11:30:27.924Z,1002.20
2022-10-27T11:35:27.867Z,1002.16
2022-10-27T11:40:27.794Z,1002.23
2022-10-27T11:45:27.746Z,1002.26
2022-10-27T11:50:27.694Z,1002.19
2022-10-27T11:55:27.648Z,1002.10
2022-10-27T12:00:27.583Z,1002.08
2022-10-27T12:05:27.571Z,1001.99
2022-10-27T12:10:27.458Z,1001.82
2022-10-27T12:15:27.552Z,1001.82
2022-10-27T12:20:27.389Z,1001.79
2022-10-27T12:25:27.306Z,1001.61
2022-10-27T12:30:27.253Z,1001.64
2022-10-27T12:35:27.262Z,1001.57
2022-10-27T12:40:27.132Z,1001.53
2022-10-27T12:45:27.092Z,1001.62
2022-10-27T12:50:27.051Z,1001.65
2022-10-27T12:55:27.003Z,1001.64
2022-10-27T13:00:26.979Z,1001.58
2022-10-27T13:05:26.882Z,1001.45
2022-10-27T13:10:30.213Z,1001.50
2022-10-27T13:15:26.788Z,1001.50
2022-10-27T13:20:26.716Z,1001.41
2022-10-27T13:25:26.733Z,1001.30
2022-10-27T13:30:26.593Z,1001.31
2022-10-27T13:35:26.601Z,1001.21
2022-10-27T13:40:26.516Z,1001.15
2022-10-27T13:45:26.433Z,1001.12
2022-10-27T13:50:26.398Z,1001.06
2022-10-27T13:55:26.367Z,1001.12
2022-10-27T14:00:26.272Z,1001.01
2022-10-27T14:05:26.229Z,1001.03
2022-10-27T14:10:26.245Z,1001.04
2022-10-27T14:15:26.212Z,1000.98
2022-10-27T14:20:26.056Z,1000.91
2022-10-27T14:25:26.017Z,1000.89
2022-10-27T14:30:25.966Z,1000.83
2022-10-27T14:35:25.966Z,1000.79
2022-10-27T14:40:25.850Z,1000.84
2022-10-27T14:45:25.807Z,1000.93
2022-10-27T14:50:25.741Z,1000.90
2022-10-27T14:55:25.783Z,1000.92
2022-10-27T15:00:25.645Z,1000.90
2022-10-27T15:05:25.598Z,1000.94
2022-10-27T15:10:25.554Z,1000.93
2022-10-27T15:15:25.498Z,1000.95
2022-10-27T15:20:25.426Z,1000.83
2022-10-27T15:25:25.373Z,1000.93
2022-10-27T15:30:25.319Z,1000.92
2022-10-27T15:35:25.282Z,1000.90
2022-10-27T15:40:25.214Z,1000.93
2022-10-27T15:45:25.159Z,1000.86
2022-10-27T15:50:25.115Z,1000.82
2022-10-27T15:55:25.071Z,1000.80
2022-10-27T16:00:25.146Z,1000.82
2022-10-27T16:05:24.947Z,1000.75
2022-10-27T16:10:24.896Z,1000.65
2022-10-27T16:15:24.859Z,1000.85
2022-10-27T16:20:24.790Z,1000.50
2022-10-27T16:25:24.719Z,1000.68
2022-10-27T16:30:24.681Z,1000.88
2022-10-27T16:35:24.639Z,1000.84
2022-10-27T16:40:24.748Z,1000.81
2022-10-27T16:45:24.495Z,1000.89
2022-10-27T16:50:24.454Z,1001.02
2022-10-27T16:55:24.418Z,1001.04
2022-10-27T17:00:24.351Z,1001.35
2022-10-27T17:05:24.276Z,1001.34
2022-10-27T17:15:24.206Z,1001.14
2022-10-27T17:20:24.131Z,1001.13
2022-10-27T17:25:25.862Z,1001.21
2022-10-27T17:30:24.011Z,1001.35
2022-10-27T17:35:23.977Z,1001.44
2022-10-27T17:40:23.904Z,1001.31
2022-10-27T17:45:23.852Z,1001.40
2022-10-27T17:50:23.826Z,1001.29
2022-10-27T17:55:23.762Z,1001.26
2022-10-27T18:00:23.681Z,1001.35
2022-10-27T18:05:27.309Z,1001.31
2022-10-27T18:10:23.572Z,1001.27
2022-10-27T18:15:35.355Z,1001.32
2022-10-27T18:20:24.461Z,1001.42
2022-10-27T18:25:23.408Z,1001.36
2022-10-27T18:30:23.352Z,1001.28
2022-10-27T18:35:23.316Z,1001.31
2022-10-27T18:40:23.242Z,1001.23
2022-10-27T18:45:23.183Z,1001.19
2022-10-27T18:50:24.138Z,1001.17
2022-10-27T18:55:23.104Z,1001.24
2022-10-27T19:00:23.026Z,1001.29
2022-10-27T19:05:22.979Z,1001.26
2022-10-27T19:10:22.907Z,1001.20
2022-10-27T19:15:23.033Z,1001.21
2022-10-27T19:20:22.813Z,1001.21
2022-10-27T19:25:22.757Z,1001.28
2022-10-27T19:30:22.716Z,1001.34
2022-10-27T19:35:22.662Z,1001.35
2022-10-27T19:40:22.600Z,1001.28
2022-10-27T19:45:22.569Z,1001.27
2022-10-27T19:50:22.500Z,1001.36
2022-10-27T19:55:22.460Z,1001.23
2022-10-27T20:00:22.431Z,1001.27
2022-10-27T20:05:22.336Z,1001.22
2022-10-27T20:10:22.286Z,1001.27
2022-10-27T20:15:22.255Z,1001.30
2022-10-27T20:20:22.181Z,1001.34
2022-10-27T20:25:22.127Z,1001.33
2022-10-27T20:30:22.075Z,1001.36
2022-10-27T20:35:22.047Z,1001.41
2022-10-27T20:40:22.102Z,1001.31
2022-10-27T20:45:21.912Z,1001.36
2022-10-27T20:50:21.864Z,1001.23
2022-10-27T20:55:21.831Z,1001.18
2022-10-27T21:00:21.760Z,1001.28
2022-10-27T21:05:21.711Z,1001.22
2022-10-27T21:10:21.653Z,1001.13
2022-10-27T21:15:21.614Z,1001.01
2022-10-27T21:20:21.562Z,1001.02
2022-10-27T21:25:21.488Z,1001.03
2022-10-27T21:30:21.482Z,1001.07
2022-10-27T21:35:21.434Z,1001.09
2022-10-27T21:40:21.329Z,1001.02
2022-10-27T21:45:21.279Z,1000.95
2022-10-27T21:50:21.224Z,1000.99
2022-10-27T21:55:21.189Z,1001.01
2022-10-27T22:00:21.119Z,1000.96
2022-10-27T22:05:21.123Z,1001.03
2022-10-27T22:10:21.019Z,1001.02
2022-10-27T22:15:28.026Z,1000.92
2022-10-27T22:20:20.897Z,1000.85
2022-10-27T22:25:20.867Z,1000.79
2022-10-27T22:30:20.787Z,1000.69
2022-10-27T22:35:20.799Z,1000.66
2022-10-27T22:40:20.693Z,1000.60
2022-10-27T22:45:20.641Z,1000.63
2022-10-27T22:50:20.574Z,1000.53
2022-10-27T22:55:20.554Z,1000.56
2022-10-27T23:00:20.468Z,1000.58
2022-10-27T23:05:20.437Z,1000.73
2022-10-27T23:10:20.361Z,1000.65
2022-10-27T23:15:20.337Z,1000.67
2022-10-27T23:20:20.257Z,1000.75
2022-10-27T23:25:20.256Z,1000.62
